Time;durP1;ratioP1;P1;durP2;ratioP2;P2;SDS_P1;SDS_P2;PMS_P1;PMS_P2;Temp;Humidity;BMP_temperature;BMP_pressure;BME280_temperature;BME280_humidity;BME280_pressure;Samples;Min_cycle;Max_cycle;Signal;HPM_P1;HPM_P2
2024/02/25 00:02:17;;;;;;;13.98;12.80;;;3.20;99.90;;;;;;4964405;28;20117;-70
2024/02/25 00:04:43;;;;;;;15.25;13.80;;;3.20;99.90;;;;;;4960107;28;20042;-70
2024/02/25 00:07:10;;;;;;;16.08;14.50;;;3.30;99.90;;;;;;4965390;28;20046;-71
2024/02/25 00:09:37;;;;;;;14.13;12.93;;;3.30;99.90;;;;;;4958363;28;21697;-71
2024/02/25 00:12:04;;;;;;;15.13;13.65;;;3.40;99.90;;;;;;4976965;28;20045;-70
2024/02/25 00:14:31;;;;;;;14.45;13.45;;;3.40;99.90;;;;;;4959729;28;20046;-69
2024/02/25 00:16:58;;;;;;;15.32;14.02;;;3.50;99.90;;;;;;4948113;28;20047;-71
2024/02/25 00:19:26;;;;;;;16.17;14.70;;;3.60;99.90;;;;;;4945331;28;20043;-70
2024/02/25 00:21:53;;;;;;;17.52;16.10;;;3.60;99.90;;;;;;4953513;28;20051;-70
2024/02/25 00:24:22;;;;;;;14.18;13.38;;;3.60;99.90;;;;;;4948435;28;20050;-70
2024/02/25 00:26:48;;;;;;;13.15;12.35;;;3.60;99.90;;;;;;4954069;28;20061;-70
2024/02/25 00:29:15;;;;;;;14.05;13.05;;;3.60;99.90;;;;;;4951188;28;20039;-69
2024/02/25 00:31:42;;;;;;;13.27;12.57;;;3.60;99.90;;;;;;4950113;28;20520;-70
2024/02/25 00:34:09;;;;;;;12.65;12.05;;;3.60;99.90;;;;;;4951102;28;20082;-69
2024/02/25 00:36:38;;;;;;;13.35;12.40;;;3.60;99.90;;;;;;4948118;28;20507;-70
2024/02/25 00:39:05;;;;;;;13.27;12.38;;;3.50;99.90;;;;;;4954815;28;20769;-70
2024/02/25 00:41:32;;;;;;;12.77;12.00;;;3.50;99.90;;;;;;4945511;28;21817;-71
2024/02/25 00:43:59;;;;;;;12.23;11.32;;;3.50;99.90;;;;;;4945741;28;20047;-71
2024/02/25 00:46:27;;;;;;;11.63;10.73;;;3.40;99.90;;;;;;4942268;28;20045;-70
2024/02/25 00:48:53;;;;;;;11.50;10.90;;;3.40;99.90;;;;;;4950538;28;20054;-72
2024/02/25 00:51:21;;;;;;;11.10;10.60;;;3.40;99.90;;;;;;4948102;28;20138;-72
2024/02/25 00:53:48;;;;;;;12.30;11.43;;;3.40;99.90;;;;;;4972577;28;20054;-72
2024/02/25 00:56:15;;;;;;;11.95;11.15;;;3.40;99.90;;;;;;4950487;28;20050;-71
2024/02/25 00:58:42;;;;;;;12.43;11.52;;;3.40;99.90;;;;;;4943280;28;20062;-72
2024/02/25 01:01:14;;;;;;;12.48;11.57;;;3.40;99.90;;;;;;4945842;28;20062;-73
2024/02/25 01:03:42;;;;;;;11.43;10.82;;;3.40;99.90;;;;;;4944136;28;20055;-73
2024/02/25 01:06:10;;;;;;;11.75;11.07;;;3.40;99.90;;;;;;4969761;28;20540;-73
2024/02/25 01:08:39;;;;;;;10.80;10.13;;;3.40;99.90;;;;;;4960619;28;20046;-73
2024/02/25 01:11:06;;;;;;;11.77;10.98;;;3.40;99.90;;;;;;4959311;28;20051;-73
2024/02/25 01:13:34;;;;;;;11.57;10.77;;;3.40;99.90;;;;;;4951888;28;20257;-72
2024/02/25 01:16:04;;;;;;;10.98;10.27;;;3.40;99.90;;;;;;4951593;28;20051;-73
2024/02/25 01:18:32;;;;;;;10.70;10.10;;;3.40;99.90;;;;;;4939714;28;20042;-72
2024/02/25 01:20:59;;;;;;;10.68;10.07;;;3.40;99.90;;;;;;4945465;28;20110;-72
2024/02/25 01:23:27;;;;;;;10.90;10.30;;;3.40;99.90;;;;;;4946408;28;20039;-72
2024/02/25 01:25:53;;;;;;;10.63;10.00;;;3.50;99.90;;;;;;4937977;28;20050;-72
2024/02/25 01:28:20;;;;;;;11.70;10.77;;;3.50;99.90;;;;;;4962501;28;20596;-72
2024/02/25 01:30:47;;;;;;;10.43;9.80;;;3.60;99.90;;;;;;4965465;28;20049;-73
2024/02/25 01:33:15;;;;;;;10.75;10.18;;;3.60;99.90;;;;;;4965347;28;20050;-71
2024/02/25 01:35:43;;;;;;;10.15;9.65;;;3.60;99.90;;;;;;4959213;28;20082;-71
2024/02/25 01:38:10;;;;;;;11.60;10.90;;;3.60;99.90;;;;;;4965475;28;20130;-70
2024/02/25 01:40:37;;;;;;;10.32;9.63;;;3.70;99.90;;;;;;4969277;28;20757;-72
2024/02/25 01:43:11;;;;;;;11.07;10.38;;;3.70;99.90;;;;;;4964708;28;20073;-72
2024/02/25 01:45:38;;;;;;;11.10;10.50;;;3.70;99.90;;;;;;4960054;28;20607;-72
2024/02/25 01:48:07;;;;;;;11.93;11.20;;;3.80;99.90;;;;;;4961242;28;20078;-70
2024/02/25 01:50:36;;;;;;;11.27;10.68;;;3.80;99.90;;;;;;4959880;28;20051;-70
2024/02/25 01:53:03;;;;;;;11.55;10.95;;;3.80;99.90;;;;;;4967269;28;20407;-71
2024/02/25 01:55:31;;;;;;;10.75;10.18;;;3.80;99.90;;;;;;4960508;28;20494;-71
2024/02/25 01:58:02;;;;;;;11.38;10.68;;;3.90;99.90;;;;;;4967949;28;20078;-71
2024/02/25 02:00:30;;;;;;;11.70;11.00;;;3.90;99.90;;;;;;4964882;28;20054;-71
2024/02/25 02:03:00;;;;;;;12.07;11.50;;;3.90;99.90;;;;;;4972006;28;20054;-70
2024/02/25 02:05:34;;;;;;;12.13;11.32;;;4.00;99.90;;;;;;4959262;28;20545;-71
2024/02/25 02:08:01;;;;;;;11.70;11.07;;;4.00;99.90;;;;;;4980500;28;20054;-70
2024/02/25 02:10:28;;;;;;;12.07;11.38;;;4.10;99.90;;;;;;4962692;28;20173;-70
2024/02/25 02:12:55;;;;;;;12.90;12.00;;;4.10;99.90;;;;;;4952500;28;20435;-70
2024/02/25 02:15:22;;;;;;;12.13;11.52;;;4.20;99.90;;;;;;4950798;28;20043;-70
2024/02/25 02:17:49;;;;;;;12.68;11.88;;;4.30;99.90;;;;;;4950904;28;20046;-69
2024/02/25 02:20:18;;;;;;;13.05;12.30;;;4.30;99.90;;;;;;4952050;28;20046;-70
2024/02/25 02:22:45;;;;;;;12.45;11.90;;;4.40;99.90;;;;;;4954163;28;20063;-71
2024/02/25 02:25:17;;;;;;;13.43;12.70;;;4.40;99.90;;;;;;4946526;28;20110;-71
2024/02/25 02:27:44;;;;;;;12.95;12.35;;;4.40;99.90;;;;;;4943941;28;20944;-70
2024/02/25 02:30:12;;;;;;;13.50;12.57;;;4.40;99.90;;;;;;4943681;28;20058;-70
2024/02/25 02:32:39;;;;;;;13.52;12.77;;;4.50;99.90;;;;;;4954639;28;20130;-70
2024/02/25 02:35:07;;;;;;;13.63;12.75;;;4.50;99.90;;;;;;4934152;28;20051;-70
2024/02/25 02:37:34;;;;;;;14.93;13.63;;;4.50;99.90;;;;;;4941376;28;20046;-70
2024/02/25 02:40:03;;;;;;;13.50;12.70;;;4.50;99.90;;;;;;4942624;28;20054;-71
2024/02/25 02:42:30;;;;;;;13.25;12.55;;;4.50;99.90;;;;;;4943332;28;20051;-70
2024/02/25 02:45:00;;;;;;;13.52;12.63;;;4.50;99.90;;;;;;4947084;28;20714;-70
2024/02/25 02:47:27;;;;;;;12.85;12.15;;;4.50;99.90;;;;;;4958329;28;20049;-70
2024/02/25 02:49:55;;;;;;;13.10;12.40;;;4.40;99.90;;;;;;4963714;28;20047;-70
2024/02/25 02:52:21;;;;;;;13.07;12.30;;;4.40;99.90;;;;;;4978456;28;20541;-70
2024/02/25 02:54:48;;;;;;;13.15;12.55;;;4.50;99.90;;;;;;4964028;28;20043;-71
2024/02/25 02:57:15;;;;;;;14.57;13.52;;;4.40;99.90;;;;;;4981772;28;20042;-70
2024/02/25 02:59:42;;;;;;;13.35;12.65;;;4.40;99.90;;;;;;4965770;28;20616;-69
2024/02/25 03:02:09;;;;;;;13.52;12.68;;;4.40;99.90;;;;;;4956173;28;20150;-71
2024/02/25 03:04:37;;;;;;;13.32;12.63;;;4.50;99.90;;;;;;4956423;28;20046;-71
2024/02/25 03:07:04;;;;;;;13.13;12.52;;;4.50;99.90;;;;;;4967920;28;20050;-71
2024/02/25 03:09:31;;;;;;;13.15;12.45;;;4.50;99.90;;;;;;4954834;28;20134;-71
2024/02/25 03:11:58;;;;;;;13.23;12.63;;;4.50;99.90;;;;;;4966918;28;20179;-70
2024/02/25 03:14:25;;;;;;;13.75;12.95;;;4.50;99.90;;;;;;4975920;28;20558;-71
2024/02/25 03:16:52;;;;;;;13.52;12.82;;;4.50;99.90;;;;;;4962752;28;20882;-70
2024/02/25 03:19:18;;;;;;;13.93;13.20;;;4.50;99.90;;;;;;4967586;28;20041;-70
2024/02/25 03:21:46;;;;;;;13.93;13.23;;;4.50;99.90;;;;;;4961972;28;20129;-70
2024/02/25 03:24:13;;;;;;;15.52;14.45;;;4.50;99.90;;;;;;4983370;28;20053;-71
2024/02/25 03:26:40;;;;;;;14.82;13.82;;;4.60;99.90;;;;;;4961328;28;20046;-70
2024/02/25 03:29:07;;;;;;;14.48;13.52;;;4.60;99.90;;;;;;4970524;28;20046;-71
2024/02/25 03:31:37;;;;;;;14.88;13.77;;;4.70;99.90;;;;;;4963886;28;20145;-70
2024/02/25 03:34:03;;;;;;;14.13;13.20;;;4.60;99.90;;;;;;4967171;28;20101;-70
2024/02/25 03:36:30;;;;;;;14.27;13.55;;;4.60;99.90;;;;;;4967366;28;20046;-70
2024/02/25 03:38:58;;;;;;;16.48;14.80;;;4.60;99.90;;;;;;4953495;28;20038;-71
2024/02/25 03:41:25;;;;;;;14.50;13.70;;;4.60;99.90;;;;;;4968743;28;20062;-69
2024/02/25 03:43:52;;;;;;;15.20;14.20;;;4.60;99.90;;;;;;4968876;28;20745;-71
2024/02/25 03:46:18;;;;;;;14.82;13.93;;;4.60;99.90;;;;;;4967612;28;20057;-71
2024/02/25 03:48:45;;;;;;;14.88;14.07;;;4.60;99.90;;;;;;4962293;28;20043;-70
2024/02/25 03:51:12;;;;;;;14.82;13.85;;;4.70;99.90;;;;;;4967362;28;20050;-71
2024/02/25 03:53:39;;;;;;;15.50;14.40;;;4.70;99.90;;;;;;4963317;28;20594;-70
2024/02/25 03:56:11;;;;;;;15.73;14.60;;;4.70;99.90;;;;;;4967471;28;20030;-72
2024/02/25 03:58:38;;;;;;;15.27;14.05;;;4.70;99.90;;;;;;4963015;28;20844;-70
2024/02/25 04:01:05;;;;;;;14.73;13.93;;;4.60;99.90;;;;;;4966689;28;20038;-71
2024/02/25 04:03:32;;;;;;;15.23;14.02;;;4.60;99.90;;;;;;4965046;28;20046;-70
2024/02/25 04:06:00;;;;;;;14.30;13.60;;;4.60;99.90;;;;;;4970962;28;20055;-71
2024/02/25 04:08:33;;;;;;;15.90;14.73;;;4.60;99.90;;;;;;4965278;28;20144;-70
2024/02/25 04:11:02;;;;;;;15.15;14.25;;;4.60;99.90;;;;;;4945608;28;20047;-71
2024/02/25 04:13:29;;;;;;;15.77;14.68;;;4.60;99.90;;;;;;4966780;28;20074;-71
2024/02/25 04:15:55;;;;;;;15.05;14.25;;;4.50;99.90;;;;;;4967976;28;20034;-71
2024/02/25 04:18:22;;;;;;;15.23;14.32;;;4.50;99.90;;;;;;4964069;28;20053;-70
2024/02/25 04:20:49;;;;;;;14.65;13.95;;;4.50;99.90;;;;;;4957195;28;20062;-70
2024/02/25 04:23:16;;;;;;;14.07;13.27;;;4.50;99.90;;;;;;4946247;28;20046;-71
2024/02/25 04:25:43;;;;;;;14.45;13.65;;;4.40;99.90;;;;;;4941196;28;20070;-70
2024/02/25 04:28:09;;;;;;;15.32;14.30;;;4.30;99.90;;;;;;4931083;28;20490;-71
2024/02/25 04:30:36;;;;;;;14.88;13.88;;;4.30;99.90;;;;;;4960010;28;20450;-70
2024/02/25 04:33:04;;;;;;;15.77;14.50;;;4.20;99.90;;;;;;4944823;28;20046;-72
2024/02/25 04:35:31;;;;;;;14.60;13.70;;;4.20;99.90;;;;;;4947693;28;20053;-73
2024/02/25 04:38:01;;;;;;;14.98;14.00;;;4.20;99.90;;;;;;4958504;28;20075;-70
2024/02/25 04:40:28;;;;;;;13.60;12.82;;;4.20;99.90;;;;;;4959023;28;20073;-73
2024/02/25 04:42:55;;;;;;;14.85;13.80;;;4.20;99.90;;;;;;4940077;28;20050;-72
2024/02/25 04:45:22;;;;;;;14.57;13.68;;;4.20;99.90;;;;;;4943638;28;20062;-72
2024/02/25 04:47:49;;;;;;;14.38;13.57;;;4.10;99.90;;;;;;4941647;28;20052;-71
2024/02/25 04:50:16;;;;;;;14.50;13.70;;;4.20;99.90;;;;;;4947518;28;20134;-70
2024/02/25 04:52:42;;;;;;;14.27;13.38;;;4.20;99.90;;;;;;4938129;28;20791;-72
2024/02/25 04:55:09;;;;;;;13.23;12.57;;;4.20;99.90;;;;;;4948749;28;20057;-73
2024/02/25 04:57:37;;;;;;;13.82;13.02;;;4.20;99.90;;;;;;4945518;28;20057;-71
2024/02/25 05:00:05;;;;;;;14.18;13.27;;;4.10;99.90;;;;;;4943333;28;20934;-71
2024/02/25 05:02:32;;;;;;;14.77;13.88;;;4.10;99.90;;;;;;4964360;28;20427;-72
2024/02/25 05:05:00;;;;;;;14.05;12.85;;;4.10;99.90;;;;;;4970649;28;20057;-72
2024/02/25 05:07:27;;;;;;;14.88;13.75;;;4.10;99.90;;;;;;4960996;28;20058;-73
2024/02/25 05:09:54;;;;;;;14.23;13.32;;;4.10;99.90;;;;;;4960946;28;20055;-69
2024/02/25 05:12:22;;;;;;;14.95;13.95;;;4.10;99.90;;;;;;4961331;28;20042;-73
2024/02/25 05:14:51;;;;;;;14.50;13.80;;;4.10;99.90;;;;;;4971349;28;20053;-72
2024/02/25 05:17:18;;;;;;;14.82;14.02;;;4.20;99.90;;;;;;4962332;28;20127;-72
2024/02/25 05:19:44;;;;;;;15.38;14.50;;;4.20;99.90;;;;;;4958447;28;20054;-72
2024/02/25 05:22:12;;;;;;;15.07;13.80;;;4.20;99.90;;;;;;4963225;28;20047;-73
2024/02/25 05:24:38;;;;;;;14.65;13.85;;;4.30;99.90;;;;;;4961595;28;20050;-72
2024/02/25 05:27:05;;;;;;;14.93;13.93;;;4.30;99.90;;;;;;4963290;28;20919;-73
2024/02/25 05:29:33;;;;;;;15.15;14.27;;;4.30;99.90;;;;;;4967612;28;20090;-72
2024/02/25 05:32:02;;;;;;;15.63;14.55;;;4.30;99.90;;;;;;4963413;28;21397;-72
2024/02/25 05:34:29;;;;;;;15.95;15.02;;;4.30;99.90;;;;;;4963922;28;20056;-72
2024/02/25 05:36:55;;;;;;;15.10;14.00;;;4.30;99.90;;;;;;4960276;28;20057;-72
2024/02/25 05:39:22;;;;;;;15.50;14.70;;;4.30;99.90;;;;;;4962607;28;20042;-71
2024/02/25 05:41:49;;;;;;;17.73;16.25;;;4.40;99.90;;;;;;4956734;28;20046;-71
2024/02/25 05:44:16;;;;;;;15.95;14.90;;;4.40;99.90;;;;;;4954327;28;20085;-71
2024/02/25 05:46:42;;;;;;;15.40;14.52;;;4.40;99.90;;;;;;4962505;28;20057;-71
2024/02/25 05:49:09;;;;;;;16.10;14.80;;;4.40;99.90;;;;;;4964122;28;20058;-72
2024/02/25 05:51:36;;;;;;;15.63;14.55;;;4.40;99.90;;;;;;4962861;28;20131;-71
2024/02/25 05:54:03;;;;;;;15.57;14.68;;;4.40;99.90;;;;;;4950017;28;20477;-71
2024/02/25 05:56:30;;;;;;;15.75;14.85;;;4.40;99.90;;;;;;4961519;28;20730;-72
2024/02/25 05:58:57;;;;;;;15.98;14.88;;;4.40;99.90;;;;;;4961380;28;20514;-72
2024/02/25 06:01:23;;;;;;;14.95;14.07;;;4.30;99.90;;;;;;4960070;28;20602;-72
2024/02/25 06:03:50;;;;;;;16.08;14.98;;;4.40;99.90;;;;;;4968587;28;20152;-72
2024/02/25 06:06:17;;;;;;;15.25;14.35;;;4.40;99.90;;;;;;4966958;28;20052;-71
2024/02/25 06:08:44;;;;;;;15.15;14.20;;;4.30;99.90;;;;;;4959274;28;20046;-71
2024/02/25 06:11:11;;;;;;;16.58;15.07;;;4.30;99.90;;;;;;4964342;28;20046;-71
2024/02/25 06:13:38;;;;;;;14.75;13.90;;;4.30;99.90;;;;;;4958338;28;20137;-71
2024/02/25 06:16:05;;;;;;;15.07;14.27;;;4.30;99.90;;;;;;4960006;28;20088;-72
2024/02/25 06:18:32;;;;;;;16.35;15.05;;;4.30;99.90;;;;;;4971947;28;20065;-71
2024/02/25 06:20:59;;;;;;;16.27;15.32;;;4.20;99.90;;;;;;4961334;28;20047;-71
2024/02/25 06:23:26;;;;;;;14.38;13.65;;;4.30;99.90;;;;;;4970739;28;20142;-73
2024/02/25 06:25:56;;;;;;;15.82;14.90;;;4.30;99.90;;;;;;4960298;28;20073;-71
2024/02/25 06:28:24;;;;;;;15.95;14.73;;;4.30;99.90;;;;;;4966028;28;20541;-71
2024/02/25 06:30:50;;;;;;;15.30;14.30;;;4.20;99.90;;;;;;4964439;28;20056;-71
2024/02/25 06:33:17;;;;;;;15.55;14.55;;;4.20;99.90;;;;;;4976353;28;20062;-71
2024/02/25 06:35:44;;;;;;;15.68;14.68;;;4.20;99.90;;;;;;4975343;28;20050;-70
2024/02/25 06:38:11;;;;;;;15.73;14.45;;;4.20;99.90;;;;;;4966694;28;20042;-71
2024/02/25 06:40:38;;;;;;;16.92;15.82;;;4.20;99.90;;;;;;4974399;28;20589;-70
2024/02/25 06:43:08;;;;;;;14.52;13.65;;;4.20;99.90;;;;;;4966143;28;20097;-72
2024/02/25 06:45:36;;;;;;;16.20;15.18;;;4.10;99.90;;;;;;4965760;28;20054;-72
2024/02/25 06:48:03;;;;;;;14.93;13.95;;;4.10;99.90;;;;;;4945554;28;20050;-71
2024/02/25 06:50:30;;;;;;;14.32;13.43;;;4.10;99.90;;;;;;4967273;28;20054;-72
2024/02/25 06:52:57;;;;;;;16.83;15.32;;;4.10;99.90;;;;;;4965140;28;20434;-72
2024/02/25 06:55:23;;;;;;;15.02;14.13;;;4.10;99.90;;;;;;4966941;28;20081;-71
2024/02/25 06:57:50;;;;;;;19.85;18.30;;;4.10;99.90;;;;;;4972361;28;20053;-72
2024/02/25 07:00:17;;;;;;;18.60;17.50;;;4.10;99.90;;;;;;4969224;28;20518;-72
2024/02/25 07:02:44;;;;;;;18.83;17.67;;;4.10;99.90;;;;;;4963424;28;20054;-72
2024/02/25 07:05:12;;;;;;;19.95;18.65;;;4.20;99.90;;;;;;4964687;28;20487;-69
2024/02/25 07:07:39;;;;;;;19.48;18.23;;;4.20;99.90;;;;;;4965368;28;20055;-71
2024/02/25 07:10:06;;;;;;;19.58;18.23;;;4.20;99.90;;;;;;4963853;28;20050;-72
2024/02/25 07:12:33;;;;;;;19.00;17.88;;;4.30;99.90;;;;;;4966202;28;20046;-71
2024/02/25 07:15:02;;;;;;;18.90;17.80;;;4.30;99.90;;;;;;4961139;28;20058;-72
2024/02/25 07:17:28;;;;;;;19.58;18.13;;;4.30;99.90;;;;;;4956894;28;20042;-71
2024/02/25 07:19:56;;;;;;;19.10;17.95;;;4.30;99.90;;;;;;4963620;28;20043;-72
2024/02/25 07:22:22;;;;;;;19.00;17.88;;;4.30;99.90;;;;;;4964281;28;20062;-72
2024/02/25 07:24:49;;;;;;;19.33;18.02;;;4.30;99.90;;;;;;4972370;28;20050;-71
2024/02/25 07:27:16;;;;;;;19.80;18.25;;;4.30;99.90;;;;;;4961883;28;20816;-73
2024/02/25 07:29:43;;;;;;;18.42;17.33;;;4.40;99.90;;;;;;4967162;28;20629;-72
2024/02/25 07:32:09;;;;;;;19.33;17.95;;;4.40;99.90;;;;;;4965350;28;20074;-72
2024/02/25 07:34:36;;;;;;;19.42;18.20;;;4.40;99.90;;;;;;4968074;28;20061;-72
2024/02/25 07:37:03;;;;;;;19.48;18.38;;;4.50;99.90;;;;;;4962259;28;20050;-72
2024/02/25 07:39:30;;;;;;;19.27;18.08;;;4.50;99.90;;;;;;4968181;28;20049;-71
2024/02/25 07:41:57;;;;;;;19.13;17.92;;;4.50;99.90;;;;;;4968155;28;20663;-72
2024/02/25 07:44:24;;;;;;;20.27;19.00;;;4.50;99.90;;;;;;4963426;28;20038;-72
2024/02/25 07:46:50;;;;;;;19.42;18.23;;;4.50;99.90;;;;;;4963150;28;20039;-71
2024/02/25 07:49:17;;;;;;;20.85;19.65;;;4.50;99.90;;;;;;4972382;28;20073;-71
2024/02/25 07:51:44;;;;;;;19.23;18.10;;;4.50;99.90;;;;;;4969366;28;20081;-71
2024/02/25 07:54:11;;;;;;;20.00;18.73;;;4.50;99.90;;;;;;4962031;28;20996;-72
2024/02/25 07:56:38;;;;;;;21.63;19.85;;;4.60;99.90;;;;;;4954305;28;20051;-72
2024/02/25 07:59:04;;;;;;;22.52;20.60;;;4.60;99.90;;;;;;4947767;28;20576;-71
2024/02/25 08:01:35;;;;;;;22.35;20.75;;;4.60;99.90;;;;;;4950182;28;20576;-71
2024/02/25 08:04:02;;;;;;;24.35;22.35;;;4.60;99.90;;;;;;4948872;28;22314;-72
2024/02/25 08:06:31;;;;;;;21.58;20.10;;;4.60;99.90;;;;;;4951183;28;20051;-72
2024/02/25 08:08:58;;;;;;;22.00;20.55;;;4.70;99.90;;;;;;4951445;28;20042;-72
2024/02/25 08:11:25;;;;;;;23.27;21.27;;;4.70;99.90;;;;;;4954357;28;20039;-71
2024/02/25 08:13:52;;;;;;;23.02;21.10;;;4.80;99.90;;;;;;4955325;28;20042;-72
2024/02/25 08:16:21;;;;;;;24.75;22.50;;;4.80;99.90;;;;;;4953334;28;20182;-73
2024/02/25 08:18:52;;;;;;;20.95;19.15;;;4.80;99.90;;;;;;4933302;28;20043;-69
2024/02/25 08:21:19;;;;;;;21.48;19.92;;;5.00;99.90;;;;;;4938535;28;20805;-70
2024/02/25 08:23:46;;;;;;;21.15;19.80;;;5.00;99.90;;;;;;4915354;28;20062;-72
2024/02/25 08:26:13;;;;;;;20.75;19.35;;;5.10;99.90;;;;;;4960504;28;20627;-70
2024/02/25 08:28:39;;;;;;;20.73;19.42;;;5.10;99.90;;;;;;4927907;28;20151;-69
2024/02/25 08:31:06;;;;;;;20.65;19.45;;;5.10;99.90;;;;;;4956344;28;20046;-69
2024/02/25 08:33:33;;;;;;;21.48;20.05;;;5.10;99.90;;;;;;4971368;28;20046;-72
2024/02/25 08:36:01;;;;;;;19.95;18.85;;;5.00;99.90;;;;;;4959708;28;20046;-71
2024/02/25 08:38:28;;;;;;;21.10;19.83;;;5.10;99.90;;;;;;4955164;28;20952;-72
2024/02/25 08:40:55;;;;;;;22.08;20.63;;;5.10;99.90;;;;;;4962923;28;20050;-72
2024/02/25 08:43:22;;;;;;;23.92;21.80;;;5.10;99.90;;;;;;4961652;28;20496;-70
2024/02/25 08:45:48;;;;;;;21.60;20.25;;;5.20;99.90;;;;;;4961837;28;20046;-70
2024/02/25 08:48:15;;;;;;;21.42;20.05;;;5.20;99.90;;;;;;4959450;28;20219;-70
2024/02/25 08:50:43;;;;;;;22.08;20.70;;;5.30;99.90;;;;;;4959560;28;20051;-70
2024/02/25 08:53:10;;;;;;;24.00;22.17;;;5.30;99.90;;;;;;4957148;28;20050;-70
2024/02/25 08:55:36;;;;;;;22.13;20.63;;;5.40;99.90;;;;;;4957920;28;20046;-69
2024/02/25 08:58:03;;;;;;;23.00;21.30;;;5.60;99.90;;;;;;4959525;28;20030;-70
2024/02/25 09:00:30;;;;;;;22.75;21.50;;;5.70;99.90;;;;;;4959135;28;20140;-70
2024/02/25 09:02:59;;;;;;;22.52;21.23;;;5.70;99.90;;;;;;4958633;28;20043;-70
2024/02/25 09:05:26;;;;;;;23.52;22.23;;;5.80;99.90;;;;;;4960572;28;20066;-70
2024/02/25 09:07:54;;;;;;;24.20;22.90;;;5.90;99.90;;;;;;4956729;28;20223;-70
2024/02/25 09:10:21;;;;;;;22.40;21.15;;;5.90;99.90;;;;;;4960592;28;20046;-70
2024/02/25 09:12:48;;;;;;;22.13;20.83;;;5.90;99.90;;;;;;4959454;28;20066;-70
2024/02/25 09:15:19;;;;;;;23.85;22.55;;;5.90;99.90;;;;;;4963659;28;20046;-70
2024/02/25 09:17:46;;;;;;;23.65;22.35;;;6.00;99.90;;;;;;4958218;28;20039;-70
2024/02/25 09:20:13;;;;;;;23.05;21.75;;;6.00;99.90;;;;;;4951799;28;20052;-69
2024/02/25 09:22:40;;;;;;;23.95;22.75;;;6.10;99.90;;;;;;4959508;28;20053;-70
2024/02/25 09:25:07;;;;;;;24.25;22.95;;;6.00;99.90;;;;;;4957686;28;20631;-70
2024/02/25 09:27:34;;;;;;;23.77;22.58;;;6.10;99.90;;;;;;4964395;28;20046;-69
2024/02/25 09:30:02;;;;;;;25.33;24.02;;;6.20;99.90;;;;;;4955945;28;20046;-70
2024/02/25 09:32:30;;;;;;;25.17;23.98;;;6.40;99.90;;;;;;4950528;28;20662;-70
2024/02/25 09:34:57;;;;;;;25.10;23.80;;;6.40;99.90;;;;;;4959060;28;20062;-71
2024/02/25 09:37:24;;;;;;;26.30;25.00;;;6.30;99.90;;;;;;4958379;28;20066;-70
2024/02/25 09:39:51;;;;;;;25.92;24.63;;;6.40;99.90;;;;;;4960223;28;20062;-70
2024/02/25 09:42:21;;;;;;;25.10;23.80;;;6.30;99.90;;;;;;4955267;28;20715;-70
2024/02/25 09:44:53;;;;;;;25.40;24.20;;;6.40;99.90;;;;;;4965078;28;20042;-70
2024/02/25 09:47:23;;;;;;;24.52;23.33;;;6.40;99.90;;;;;;4955426;28;20058;-71
2024/02/25 09:49:50;;;;;;;28.23;26.33;;;6.50;99.90;;;;;;4959559;28;20081;-70
2024/02/25 09:52:19;;;;;;;28.23;26.73;;;6.70;99.90;;;;;;4954367;28;20043;-70
2024/02/25 09:54:46;;;;;;;27.30;25.90;;;6.70;99.90;;;;;;4959226;28;20057;-70
2024/02/25 09:57:13;;;;;;;23.77;22.50;;;6.80;99.90;;;;;;4974088;28;20455;-70
2024/02/25 09:59:41;;;;;;;27.40;26.02;;;6.90;99.90;;;;;;4959368;28;20042;-70
2024/02/25 10:02:08;;;;;;;25.90;24.60;;;7.10;99.90;;;;;;4963517;28;20034;-69
2024/02/25 10:04:36;;;;;;;26.02;24.73;;;7.20;99.90;;;;;;4980031;28;20049;-70
2024/02/25 10:07:03;;;;;;;25.10;23.67;;;7.40;99.90;;;;;;4966756;28;20061;-69
2024/02/25 10:09:34;;;;;;;23.77;22.52;;;7.70;99.90;;;;;;4965340;28;20053;-70
2024/02/25 10:12:03;;;;;;;24.90;23.50;;;8.10;99.90;;;;;;4959093;28;20047;-70
2024/02/25 10:14:31;;;;;;;25.83;24.48;;;8.40;99.90;;;;;;4979065;28;20110;-69
2024/02/25 10:17:02;;;;;;;25.10;23.80;;;8.60;99.90;;;;;;4967847;28;20053;-71
2024/02/25 10:19:30;;;;;;;25.33;23.92;;;8.60;99.90;;;;;;4961502;28;20126;-70
2024/02/25 10:22:17;;;;;;;26.90;25.40;;;8.70;99.90;;;;;;4964521;28;20046;-69
2024/02/25 10:24:44;;;;;;;24.33;23.02;;;8.70;99.90;;;;;;4968611;28;20054;-73
2024/02/25 10:27:13;;;;;;;22.65;21.45;;;8.40;99.90;;;;;;4960921;28;20495;-71
2024/02/25 10:29:53;;;;;;;24.08;22.77;;;8.10;99.90;;;;;;4960860;28;20053;-71
2024/02/25 10:32:27;;;;;;;23.38;22.17;;;8.00;99.90;;;;;;4964765;28;20049;-71
2024/02/25 10:35:00;;;;;;;23.60;22.38;;;8.10;99.90;;;;;;4964860;28;20523;-70
2024/02/25 10:37:29;;;;;;;24.67;23.38;;;8.00;99.90;;;;;;4967947;28;20074;-70
2024/02/25 10:40:07;;;;;;;23.05;21.85;;;7.70;99.90;;;;;;4978013;28;20046;-70
2024/02/25 10:42:43;;;;;;;22.98;21.77;;;7.80;99.90;;;;;;4965540;28;20057;-70
2024/02/25 10:45:13;;;;;;;24.00;22.73;;;7.90;99.90;;;;;;4959231;28;23438;-70
2024/02/25 10:47:41;;;;;;;22.95;21.75;;;7.90;99.90;;;;;;4962049;28;20081;-70
2024/02/25 10:50:08;;;;;;;23.33;22.13;;;7.80;99.90;;;;;;4958440;28;20069;-70
2024/02/25 10:52:35;;;;;;;23.63;22.42;;;7.70;99.90;;;;;;4959309;28;20873;-71
2024/02/25 10:55:03;;;;;;;22.77;21.55;;;7.50;99.90;;;;;;4962972;28;20042;-74
2024/02/25 10:57:31;;;;;;;22.85;21.67;;;7.50;99.90;;;;;;4964195;28;20054;-71
2024/02/25 10:59:59;;;;;;;22.90;21.70;;;7.50;99.90;;;;;;4961386;28;20610;-71
2024/02/25 11:02:28;;;;;;;23.38;22.17;;;7.70;99.90;;;;;;4976874;28;20089;-72
2024/02/25 11:04:58;;;;;;;27.08;25.67;;;7.80;99.90;;;;;;4958326;28;20054;-71
2024/02/25 11:07:25;;;;;;;23.10;21.80;;;7.70;99.90;;;;;;4960047;28;20054;-71
2024/02/25 11:09:52;;;;;;;24.77;23.48;;;7.80;99.90;;;;;;4959791;28;20070;-70
2024/02/25 11:12:26;;;;;;;21.83;20.73;;;7.80;99.90;;;;;;4953804;28;20149;-71
2024/02/25 11:15:01;;;;;;;23.20;21.90;;;7.80;99.90;;;;;;4957720;28;20043;-71
2024/02/25 11:17:32;;;;;;;23.20;22.00;;;8.00;99.90;;;;;;4956617;28;20042;-72
2024/02/25 11:20:11;;;;;;;25.90;24.20;;;8.10;99.90;;;;;;4960396;28;20499;-72
2024/02/25 11:22:46;;;;;;;23.25;22.05;;;8.20;99.90;;;;;;4964480;28;20046;-71
2024/02/25 11:25:35;;;;;;;22.00;20.90;;;8.10;99.90;;;;;;4959780;28;20544;-71
2024/02/25 11:28:06;;;;;;;23.38;22.17;;;8.10;99.90;;;;;;4962212;28;20048;-70
2024/02/25 11:30:43;;;;;;;22.63;21.42;;;8.30;99.90;;;;;;4961748;28;20625;-71
2024/02/25 11:33:32;;;;;;;23.05;21.85;;;8.40;99.90;;;;;;4957014;28;20050;-71
2024/02/25 11:36:01;;;;;;;22.73;21.42;;;8.30;99.90;;;;;;4960837;28;20046;-70
2024/02/25 11:38:29;;;;;;;24.00;22.80;;;8.20;99.90;;;;;;4959501;28;20137;-69
2024/02/25 11:40:56;;;;;;;24.05;22.65;;;8.10;99.90;;;;;;4961897;28;20137;-70
2024/02/25 11:43:27;;;;;;;23.95;22.55;;;8.30;99.90;;;;;;4952667;28;20494;-71
2024/02/25 11:45:56;;;;;;;23.88;22.67;;;8.30;99.90;;;;;;4959620;28;20401;-69
2024/02/25 11:48:23;;;;;;;22.98;21.77;;;8.30;99.90;;;;;;4967385;28;20055;-70
2024/02/25 11:50:51;;;;;;;25.15;23.67;;;8.30;99.90;;;;;;4981834;28;20102;-69
2024/02/25 11:53:18;;;;;;;23.38;22.08;;;8.20;99.90;;;;;;4961343;28;20112;-71
2024/02/25 11:55:47;;;;;;;24.92;23.48;;;8.10;99.90;;;;;;4963463;28;20756;-70
2024/02/25 11:58:15;;;;;;;23.52;22.23;;;8.10;99.90;;;;;;4961872;28;20569;-71
2024/02/25 12:00:42;;;;;;;25.25;23.75;;;8.00;99.90;;;;;;4965834;28;20502;-70
2024/02/25 12:03:09;;;;;;;25.17;23.77;;;8.00;99.90;;;;;;4962433;28;20050;-69
2024/02/25 12:05:36;;;;;;;26.02;24.63;;;8.00;99.90;;;;;;4965316;28;20045;-70
2024/02/25 12:08:04;;;;;;;28.38;26.98;;;8.10;99.90;;;;;;4962456;28;20054;-70
2024/02/25 12:10:31;;;;;;;26.20;24.70;;;8.20;99.90;;;;;;4959256;28;20059;-70
2024/02/25 12:12:58;;;;;;;24.73;23.42;;;8.20;99.90;;;;;;4956835;28;20054;-70
2024/02/25 12:15:27;;;;;;;24.33;23.02;;;8.10;99.90;;;;;;4963690;28;20060;-70
2024/02/25 12:17:56;;;;;;;26.25;24.75;;;8.20;99.90;;;;;;4958169;28;20195;-70
2024/02/25 12:20:24;;;;;;;25.42;24.17;;;8.30;99.90;;;;;;4973514;28;20050;-70
2024/02/25 12:22:54;;;;;;;25.38;24.08;;;8.30;99.90;;;;;;4959615;28;20047;-69
2024/02/25 12:25:21;;;;;;;24.45;23.17;;;8.50;99.90;;;;;;4957239;28;20051;-70
2024/02/25 12:27:52;;;;;;;25.77;24.48;;;8.60;99.90;;;;;;4956746;28;20117;-71
2024/02/25 12:30:20;;;;;;;26.50;25.00;;;8.70;99.90;;;;;;4958592;28;20050;-73
2024/02/25 12:32:48;;;;;;;26.73;25.40;;;8.70;99.90;;;;;;4978399;28;20042;-73
2024/02/25 12:35:17;;;;;;;26.30;24.95;;;8.70;99.90;;;;;;4960067;28;20081;-71
2024/02/25 12:37:44;;;;;;;26.15;24.75;;;8.60;99.90;;;;;;4964026;28;20085;-70
2024/02/25 12:40:14;;;;;;;27.85;26.55;;;8.50;99.90;;;;;;4960999;28;20057;-70
2024/02/25 12:42:47;;;;;;;28.00;26.65;;;8.40;99.90;;;;;;4953896;28;20050;-70